| time (UTC) | temp C | wind direction | speed KPH | gust KPH | rain 1hr cm | rain 24hr cm | rain mn cm | humidity % | barometer mb |
| 20260906164533 | 31 | 9 | 8.0 | 12.9 | 0.00 | 0.00 | 0.00 | 74 | 1014.6 |
| 20260906163024 | 30 | 58 | 6.4 | 17.7 | 0.00 | 0.00 | 0.00 | 75 | 1014.7 |
| 20260906161517 | 30 | 63 | 6.4 | 17.7 | 0.00 | 0.00 | 0.00 | 73 | 1014.7 |
| 20260906160013 | 30 | 11 | 8.0 | 16.1 | 0.00 | 0.00 | 0.00 | 76 | 1014.6 |
| 20260906154509 | 30 | 44 | 9.7 | 12.9 | 0.00 | 0.00 | 0.00 | 75 | 1014.4 |
| 20260906153008 | 28 | 28 | 6.4 | 12.9 | 0.00 | 0.00 | 0.00 | 78 | 1014.5 |
| 20260906151501 | 28 | 31 | 6.4 | 14.5 | 0.00 | 0.00 | 0.00 | 78 | 1014.4 |
| 20260906150057 | 28 | 84 | 8.0 | 16.1 | 0.00 | 0.00 | 0.00 | 78 | 1014.3 |
| 20260906144553 | 27 | 61 | 6.4 | 12.9 | 0.00 | 0.00 | 0.00 | 80 | 1014.5 |
| 20260906143049 | 27 | 43 | 4.8 | 9.7 | 0.00 | 0.00 | 0.00 | 80 | 1014.5 |
| 20260906141545 | 26 | 33 | 3.2 | 11.3 | 0.00 | 0.00 | 0.00 | 81 | 1014.4 |
| 20260906140046 | 26 | 37 | 6.4 | 11.3 | 0.00 | 0.00 | 0.00 | 82 | 1014.2 |
| 20260906134537 | 25 | 43 | 6.4 | 14.5 | 0.00 | 0.00 | 0.00 | 83 | 1014.2 |
| 20260906133038 | 25 | 72 | 4.8 | 14.5 | 0.00 | 0.00 | 0.00 | 84 | 1014.1 |
| 20260906131530 | 25 | 94 | 6.4 | 12.9 | 0.00 | 0.00 | 0.00 | 85 | 1014.0 |
| 20260906130025 | 24 | 51 | 3.2 | 12.9 | 0.00 | 0.00 | 0.00 | 87 | 1014.0 |
| 20260906124519 | 23 | 17 | 4.8 | 14.5 | 0.00 | 0.00 | 0.00 | 90 | 1014.0 |
| 20260906123021 | 23 | 70 | 4.8 | 9.7 | 0.00 | 0.00 | 0.00 | 92 | 1013.7 |
| 20260906121512 | 23 | 64 | 4.8 | 8.0 | 0.00 | 0.00 | 0.00 | 93 | 1013.6 |
| 20260906120010 | 23 | 55 | 3.2 | 8.0 | 0.00 | 0.00 | 0.00 | 93 | 1013.7 |
| 20260906114506 | 23 | 69 | 3.2 | 9.7 | 0.00 | 0.00 | 0.00 | 93 | 1013.3 |
| 20260906113005 | 23 | 53 | 4.8 | 8.0 | 0.00 | 0.00 | 0.00 | 93 | 1013.2 |
| 20260906111506 | 23 | 68 | 1.6 | 9.7 | 0.00 | 0.00 | 0.00 | 93 | 1013.2 |
| 20260906110004 | 23 | 53 | 3.2 | 12.9 | 0.00 | 0.00 | 0.00 | 93 | 1013.1 |
| 20260906104501 | 23 | 46 | 8.0 | 12.9 | 0.00 | 0.00 | 0.00 | 93 | 1013.1 |
| 20260906103101 | 24 | 30 | 4.8 | 12.9 | 0.00 | 0.00 | 0.00 | 92 | 1013.1 |
| 20260906101558 | 24 | 51 | 6.4 | 11.3 | 0.00 | 0.00 | 0.00 | 92 | 1013.0 |
| 20260906100056 | 24 | 23 | 6.4 | 11.3 | 0.00 | 0.00 | 0.00 | 92 | 1012.8 |
| 20260906094557 | 24 | 63 | 4.8 | 12.9 | 0.00 | 0.00 | 0.00 | 91 | 1012.7 |
| 20260906093056 | 24 | 34 | 4.8 | 11.3 | 0.00 | 0.00 | 0.00 | 90 | 1012.6 |
| 20260906091550 | 24 | 54 | 6.4 | 11.3 | 0.00 | 0.00 | 0.00 | 90 | 1012.4 |
| 20260906090049 | 25 | 51 | 6.4 | 11.3 | 0.00 | 0.00 | 0.00 | 89 | 1012.2 |
| 20260906084549 | 25 | 30 | 4.8 | 9.7 | 0.00 | 0.00 | 0.00 | 88 | 1012.0 |
| 20260906083049 | 25 | 28 | 3.2 | 6.4 | 0.00 | 0.00 | 0.00 | 88 | 1012.0 |
| 20260906081548 | 25 | 20 | 3.2 | 8.0 | 0.00 | 0.00 | 0.00 | 87 | 1012.0 |
| 20260906080046 | 25 | 13 | 3.2 | 6.4 | 0.00 | 0.00 | 0.00 | 86 | 1011.9 |
| 20260906074546 | 25 | 30 | 1.6 | 4.8 | 0.00 | 0.00 | 0.00 | 86 | 1011.8 |
| 20260906073043 | 25 | 25 | 1.6 | 4.8 | 0.00 | 0.00 | 0.00 | 85 | 1012.0 |
| 20260906071542 | 25 | 29 | 1.6 | 3.2 | 0.00 | 0.00 | 0.00 | 84 | 1012.0 |
| 20260906070041 | 25 | 30 | 1.6 | 4.8 | 0.00 | 0.00 | 0.00 | 84 | 1012.1 |
| 20260906064542 | 25 | 28 | 1.6 | 6.4 | 0.00 | 0.00 | 0.00 | 84 | 1012.2 |
| 20260906063038 | 25 | 22 | 1.6 | 4.8 | 0.00 | 0.00 | 0.00 | 83 | 1012.2 |
| 20260906061538 | 25 | 20 | 1.6 | 4.8 | 0.00 | 0.00 | 0.00 | 82 | 1012.2 |
| 20260906060035 | 25 | 33 | 1.6 | 3.2 | 0.00 | 0.00 | 0.00 | 82 | 1012.2 |
| 20260906054539 | 25 | 33 | 1.6 | 3.2 | 0.00 | 0.00 | 0.00 | 82 | 1012.4 |
| 20260906053033 | 25 | 20 | 1.6 | 3.2 | 0.00 | 0.00 | 0.00 | 81 | 1012.3 |
| 20260906051532 | 26 | 20 | 1.6 | 4.8 | 0.00 | 0.00 | 0.00 | 81 | 1012.3 |
| 20260906050030 | 26 | 20 | 0.0 | 3.2 | 0.00 | 0.00 | 0.00 | 81 | 1012.3 |
| 20260906044530 | 26 | 20 | 1.6 | 3.2 | 0.00 | 0.00 | 0.00 | 80 | 1012.1 |
| 20260906043030 | 26 | 20 | 0.0 | 3.2 | 0.00 | 0.00 | 0.00 | 80 | 1012.2 |
| 20260906041530 | 26 | 20 | 0.0 | 3.2 | 0.00 | 0.00 | 0.00 | 80 | 1012.0 |
| 20260906040029 | 26 | 20 | 0.0 | 4.8 | 0.00 | 0.00 | 0.00 | 80 | 1011.9 |
| 20260906034529 | 26 | 58 | 1.6 | 3.2 | 0.00 | 0.00 | 0.00 | 79 | 1011.7 |
| 20260906033028 | 26 | 58 | 1.6 | 3.2 | 0.00 | 0.00 | 0.00 | 79 | 1011.7 |
| 20260906031528 | 26 | 58 | 0.0 | 3.2 | 0.00 | 0.00 | 0.00 | 79 | 1011.6 |
| 20260906030027 | 26 | 58 | 0.0 | 1.6 | 0.00 | 0.00 | 0.00 | 78 | 1011.5 |
| 20260906024526 | 27 | 58 | 0.0 | 1.6 | 0.00 | 0.00 | 0.00 | 77 | 1011.4 |
| 20260906023028 | 27 | 58 | 0.0 | 0.0 | 0.00 | 0.00 | 0.00 | 75 | 1011.1 |
| 20260906021537 | 27 | 58 | 0.0 | 0.0 | 0.00 | 0.00 | 0.00 | 75 | 1011.0 |
| 20260906020026 | 27 | 58 | 0.0 | 3.2 | 0.00 | 0.00 | 0.00 | 75 | 1010.8 |
| 20260906014527 | 28 | 58 | 1.6 | 3.2 | 0.00 | 0.00 | 0.00 | 73 | 1010.5 |
| 20260906013035 | 28 | 58 | 1.6 | 3.2 | 0.00 | 0.00 | 0.00 | 74 | 1010.5 |
| 20260906011526 | 28 | 58 | 0.0 | 1.6 | 0.00 | 0.00 | 0.00 | 73 | 1010.3 |
| 20260906010023 | 29 | 58 | 0.0 | 1.6 | 0.00 | 0.00 | 0.00 | 70 | 1010.1 |
| 20260906004522 | 30 | 58 | 0.0 | 3.2 | 0.00 | 0.00 | 0.00 | 69 | 1010.0 |
| 20260906003023 | 30 | 58 | 0.0 | 3.2 | 0.00 | 0.00 | 0.00 | 67 | 1010.0 |
| 20260906001522 | 30 | 58 | 1.6 | 4.8 | 0.00 | 0.00 | 0.00 | 66 | 1010.1 |
| 20260906000023 | 31 | 99 | 3.2 | 9.7 | 0.00 | 0.00 | 0.00 | 64 | 1010.1 |
| 20260905234520 | 31 | 60 | 3.2 | 9.7 | 0.00 | 0.00 | 0.00 | 60 | 1010.1 |
| 20260905233021 | 32 | 5 | 4.8 | 11.3 | 0.00 | 0.00 | 0.00 | 58 | 1010.2 |
| 20260905231520 | 32 | 44 | 6.4 | 14.5 | 0.00 | 0.00 | 0.00 | 55 | 1010.1 |
| 20260905230119 | 34 | 342 | 9.7 | 25.7 | 0.00 | 0.00 | 0.00 | 52 | 1010.3 |
| 20260905224522 | 36 | 34 | 6.4 | 11.3 | 0.00 | 0.00 | 0.00 | 51 | 1010.2 |
| 20260905223018 | 36 | 253 | 1.6 | 6.4 | 0.00 | 0.00 | 0.00 | 49 | 1010.1 |
| 20260905221517 | 36 | 315 | 3.2 | 8.0 | 0.00 | 0.00 | 0.00 | 46 | 1010.0 |
| 20260905220016 | 37 | 342 | 3.2 | 9.7 | 0.00 | 0.00 | 0.00 | 45 | 1010.1 |
| 20260905214516 | 38 | 344 | 3.2 | 6.4 | 0.00 | 0.00 | 0.00 | 44 | 1010.0 |
| 20260905213015 | 38 | 304 | 1.6 | 4.8 | 0.00 | 0.00 | 0.00 | 43 | 1010.0 |
| 20260905211514 | 40 | 325 | 3.2 | 8.0 | 0.00 | 0.00 | 0.00 | 40 | 1010.2 |
| 20260905210011 | 40 | 273 | 3.2 | 9.7 | 0.00 | 0.00 | 0.00 | 40 | 1010.3 |
| 20260905204511 | 39 | 318 | 3.2 | 9.7 | 0.00 | 0.00 | 0.00 | 43 | 1010.5 |
| 20260905203006 | 38 | 278 | 3.2 | 16.1 | 0.00 | 0.00 | 0.00 | 44 | 1010.7 |
| 20260905201508 | 39 | 300 | 1.6 | 11.3 | 0.00 | 0.00 | 0.00 | 43 | 1010.9 |
| 20260905200003 | 39 | 236 | 1.6 | 16.1 | 0.00 | 0.00 | 0.00 | 44 | 1011.0 |
| 20260905194502 | 39 | 360 | 6.4 | 14.5 | 0.00 | 0.00 | 0.00 | 48 | 1011.2 |
| 20260905193059 | 38 | 302 | 1.6 | 9.7 | 0.00 | 0.00 | 0.00 | 44 | 1011.2 |
| 20260905191557 | 38 | 21 | 1.6 | 9.7 | 0.00 | 0.00 | 0.00 | 45 | 1011.3 |
| 20260905190101 | 38 | 322 | 8.0 | 14.5 | 0.00 | 0.00 | 0.00 | 47 | 1011.5 |
| 20260905184554 | 38 | 246 | 4.8 | 11.3 | 0.00 | 0.00 | 0.00 | 45 | 1011.6 |
| 20260905183106 | 37 | 355 | 0.0 | 9.7 | 0.00 | 0.00 | 0.00 | 49 | 1011.8 |
| 20260905181547 | 37 | 309 | 4.8 | 14.5 | 0.00 | 0.00 | 0.00 | 54 | 1012.1 |
| 20260905180045 | 37 | 338 | 6.4 | 11.3 | 0.00 | 0.00 | 0.00 | 53 | 1012.2 |
| 20260905174542 | 36 | 49 | 3.2 | 11.3 | 0.00 | 0.00 | 0.00 | 51 | 1012.3 |
| 20260905173039 | 36 | 329 | 3.2 | 8.0 | 0.00 | 0.00 | 0.00 | 56 | 1012.5 |
| 20260905171546 | 35 | 123 | 0.0 | 9.7 | 0.00 | 0.00 | 0.00 | 54 | 1012.6 |
| 20260905170035 | 36 | 32 | 4.8 | 8.0 | 0.00 | 0.00 | 0.00 | 55 | 1012.6 |